sensor_id;sensor_type;location;lat;lon;timestamp;P1;durP1;ratioP1;P2;durP2;ratioP2
32152;SDS011;18656;50.580;11.392;2023-03-01T00:01:05;27.02;;;15.38;;
32152;SDS011;18656;50.580;11.392;2023-03-01T00:03:33;28.20;;;16.38;;
32152;SDS011;18656;50.580;11.392;2023-03-01T00:06:01;30.67;;;16.73;;
32152;SDS011;18656;50.580;11.392;2023-03-01T00:08:28;30.98;;;16.42;;
32152;SDS011;18656;50.580;11.392;2023-03-01T00:11:00;25.90;;;16.38;;
32152;SDS011;18656;50.580;11.392;2023-03-01T00:13:28;27.70;;;15.48;;
32152;SDS011;18656;50.580;11.392;2023-03-01T00:15:55;29.60;;;15.98;;
32152;SDS011;18656;50.580;11.392;2023-03-01T00:18:22;31.13;;;16.70;;
32152;SDS011;18656;50.580;11.392;2023-03-01T00:20:50;30.40;;;17.33;;
32152;SDS011;18656;50.580;11.392;2023-03-01T00:23:18;34.13;;;16.98;;
32152;SDS011;18656;50.580;11.392;2023-03-01T00:25:45;27.00;;;15.98;;
32152;SDS011;18656;50.580;11.392;2023-03-01T00:28:12;27.83;;;16.00;;
32152;SDS011;18656;50.580;11.392;2023-03-01T00:30:39;31.95;;;16.80;;
32152;SDS011;18656;50.580;11.392;2023-03-01T00:33:07;30.50;;;17.10;;
32152;SDS011;18656;50.580;11.392;2023-03-01T00:35:34;29.35;;;16.52;;
32152;SDS011;18656;50.580;11.392;2023-03-01T00:38:02;27.27;;;16.83;;
32152;SDS011;18656;50.580;11.392;2023-03-01T00:40:31;28.33;;;16.77;;
32152;SDS011;18656;50.580;11.392;2023-03-01T00:42:59;28.42;;;16.25;;
32152;SDS011;18656;50.580;11.392;2023-03-01T00:45:26;30.77;;;16.35;;
32152;SDS011;18656;50.580;11.392;2023-03-01T00:47:54;29.48;;;15.73;;
32152;SDS011;18656;50.580;11.392;2023-03-01T00:50:21;24.70;;;15.25;;
32152;SDS011;18656;50.580;11.392;2023-03-01T00:52:51;26.23;;;15.82;;
32152;SDS011;18656;50.580;11.392;2023-03-01T00:55:18;28.85;;;16.20;;
32152;SDS011;18656;50.580;11.392;2023-03-01T00:57:46;26.85;;;15.07;;
32152;SDS011;18656;50.580;11.392;2023-03-01T01:00:13;25.00;;;15.45;;
32152;SDS011;18656;50.580;11.392;2023-03-01T01:02:40;26.83;;;14.95;;
32152;SDS011;18656;50.580;11.392;2023-03-01T01:05:07;27.75;;;15.23;;
32152;SDS011;18656;50.580;11.392;2023-03-01T01:07:35;27.60;;;14.90;;
32152;SDS011;18656;50.580;11.392;2023-03-01T01:10:02;24.95;;;14.32;;
32152;SDS011;18656;50.580;11.392;2023-03-01T01:12:30;28.42;;;14.82;;
32152;SDS011;18656;50.580;11.392;2023-03-01T01:14:57;24.48;;;14.95;;
32152;SDS011;18656;50.580;11.392;2023-03-01T01:17:24;26.90;;;14.48;;
32152;SDS011;18656;50.580;11.392;2023-03-01T01:19:52;34.53;;;15.05;;
32152;SDS011;18656;50.580;11.392;2023-03-01T01:22:19;29.38;;;15.20;;
32152;SDS011;18656;50.580;11.392;2023-03-01T01:24:46;28.02;;;15.50;;
32152;SDS011;18656;50.580;11.392;2023-03-01T01:27:13;29.85;;;15.70;;
32152;SDS011;18656;50.580;11.392;2023-03-01T01:29:40;28.17;;;15.32;;
32152;SDS011;18656;50.580;11.392;2023-03-01T01:32:08;29.73;;;15.88;;
32152;SDS011;18656;50.580;11.392;2023-03-01T01:34:35;29.95;;;16.92;;
32152;SDS011;18656;50.580;11.392;2023-03-01T01:37:02;28.60;;;16.30;;
32152;SDS011;18656;50.580;11.392;2023-03-01T01:39:30;29.88;;;16.50;;
32152;SDS011;18656;50.580;11.392;2023-03-01T01:41:57;30.35;;;16.77;;
32152;SDS011;18656;50.580;11.392;2023-03-01T01:44:25;27.75;;;16.27;;
32152;SDS011;18656;50.580;11.392;2023-03-01T01:51:51;33.38;;;17.05;;
32152;SDS011;18656;50.580;11.392;2023-03-01T01:54:30;28.38;;;16.27;;
32152;SDS011;18656;50.580;11.392;2023-03-01T01:56:59;26.13;;;15.88;;
32152;SDS011;18656;50.580;11.392;2023-03-01T01:59:27;25.38;;;15.38;;
32152;SDS011;18656;50.580;11.392;2023-03-01T02:01:55;33.17;;;17.08;;
32152;SDS011;18656;50.580;11.392;2023-03-01T02:04:24;30.80;;;16.83;;
32152;SDS011;18656;50.580;11.392;2023-03-01T02:06:54;37.03;;;16.75;;
32152;SDS011;18656;50.580;11.392;2023-03-01T02:09:24;28.13;;;16.17;;
32152;SDS011;18656;50.580;11.392;2023-03-01T02:11:51;29.45;;;16.42;;
32152;SDS011;18656;50.580;11.392;2023-03-01T02:14:19;29.80;;;15.85;;
32152;SDS011;18656;50.580;11.392;2023-03-01T02:16:46;28.70;;;16.25;;
32152;SDS011;18656;50.580;11.392;2023-03-01T02:19:22;27.75;;;16.38;;
32152;SDS011;18656;50.580;11.392;2023-03-01T02:26:54;26.48;;;16.08;;
32152;SDS011;18656;50.580;11.392;2023-03-01T02:29:22;25.58;;;16.20;;
32152;SDS011;18656;50.580;11.392;2023-03-01T02:31:50;31.55;;;16.30;;
32152;SDS011;18656;50.580;11.392;2023-03-01T02:34:19;31.95;;;16.25;;
32152;SDS011;18656;50.580;11.392;2023-03-01T02:36:47;27.27;;;16.42;;
32152;SDS011;18656;50.580;11.392;2023-03-01T02:39:33;32.10;;;17.00;;
32152;SDS011;18656;50.580;11.392;2023-03-01T02:42:03;30.98;;;16.20;;
32152;SDS011;18656;50.580;11.392;2023-03-01T02:44:30;35.28;;;18.35;;
32152;SDS011;18656;50.580;11.392;2023-03-01T02:46:58;28.63;;;17.35;;
32152;SDS011;18656;50.580;11.392;2023-03-01T02:49:28;31.30;;;17.33;;
32152;SDS011;18656;50.580;11.392;2023-03-01T02:57:06;33.63;;;17.52;;
32152;SDS011;18656;50.580;11.392;2023-03-01T02:59:34;30.58;;;17.85;;
32152;SDS011;18656;50.580;11.392;2023-03-01T03:02:18;30.85;;;17.15;;
32152;SDS011;18656;50.580;11.392;2023-03-01T03:05:11;33.15;;;16.88;;
32152;SDS011;18656;50.580;11.392;2023-03-01T03:07:39;29.60;;;16.67;;
32152;SDS011;18656;50.580;11.392;2023-03-01T03:10:08;31.48;;;16.42;;
32152;SDS011;18656;50.580;11.392;2023-03-01T03:12:37;32.33;;;17.20;;
32152;SDS011;18656;50.580;11.392;2023-03-01T03:15:06;31.45;;;18.33;;
32152;SDS011;18656;50.580;11.392;2023-03-01T03:17:36;30.80;;;17.08;;
32152;SDS011;18656;50.580;11.392;2023-03-01T03:20:03;34.67;;;17.23;;
32152;SDS011;18656;50.580;11.392;2023-03-01T03:22:31;29.63;;;17.45;;
32152;SDS011;18656;50.580;11.392;2023-03-01T03:25:00;30.90;;;17.40;;
32152;SDS011;18656;50.580;11.392;2023-03-01T03:27:27;41.17;;;19.00;;
32152;SDS011;18656;50.580;11.392;2023-03-01T03:29:54;32.38;;;17.38;;
32152;SDS011;18656;50.580;11.392;2023-03-01T03:32:21;32.50;;;17.88;;
32152;SDS011;18656;50.580;11.392;2023-03-01T03:34:49;34.83;;;17.38;;
32152;SDS011;18656;50.580;11.392;2023-03-01T03:37:16;28.15;;;16.55;;
32152;SDS011;18656;50.580;11.392;2023-03-01T03:40:02;31.40;;;16.45;;
32152;SDS011;18656;50.580;11.392;2023-03-01T03:42:29;32.28;;;17.95;;
32152;SDS011;18656;50.580;11.392;2023-03-01T03:44:57;32.25;;;17.70;;
32152;SDS011;18656;50.580;11.392;2023-03-01T03:47:24;32.13;;;17.67;;
32152;SDS011;18656;50.580;11.392;2023-03-01T03:49:51;28.80;;;16.27;;
32152;SDS011;18656;50.580;11.392;2023-03-01T03:52:18;28.27;;;16.17;;
32152;SDS011;18656;50.580;11.392;2023-03-01T03:54:45;37.72;;;17.90;;
32152;SDS011;18656;50.580;11.392;2023-03-01T03:57:12;34.45;;;18.80;;
32152;SDS011;18656;50.580;11.392;2023-03-01T03:59:39;36.60;;;18.48;;
32152;SDS011;18656;50.580;11.392;2023-03-01T04:02:07;35.88;;;18.30;;
32152;SDS011;18656;50.580;11.392;2023-03-01T04:04:34;32.25;;;17.85;;
32152;SDS011;18656;50.580;11.392;2023-03-01T04:07:02;34.15;;;18.25;;
32152;SDS011;18656;50.580;11.392;2023-03-01T04:09:29;34.20;;;18.05;;
32152;SDS011;18656;50.580;11.392;2023-03-01T04:11:56;38.05;;;18.55;;
32152;SDS011;18656;50.580;11.392;2023-03-01T04:14:23;35.92;;;19.13;;
32152;SDS011;18656;50.580;11.392;2023-03-01T04:16:50;37.28;;;19.08;;
32152;SDS011;18656;50.580;11.392;2023-03-01T04:19:18;33.70;;;18.08;;
32152;SDS011;18656;50.580;11.392;2023-03-01T04:21:47;35.95;;;18.33;;
32152;SDS011;18656;50.580;11.392;2023-03-01T04:24:14;33.80;;;18.20;;
32152;SDS011;18656;50.580;11.392;2023-03-01T04:26:41;31.20;;;17.83;;
32152;SDS011;18656;50.580;11.392;2023-03-01T04:29:09;30.38;;;16.80;;
32152;SDS011;18656;50.580;11.392;2023-03-01T04:31:36;32.92;;;16.38;;
32152;SDS011;18656;50.580;11.392;2023-03-01T04:34:04;32.92;;;18.27;;
32152;SDS011;18656;50.580;11.392;2023-03-01T04:36:31;33.85;;;19.02;;
32152;SDS011;18656;50.580;11.392;2023-03-01T04:38:59;34.63;;;18.13;;
32152;SDS011;18656;50.580;11.392;2023-03-01T04:41:38;35.50;;;18.52;;
32152;SDS011;18656;50.580;11.392;2023-03-01T04:44:06;32.92;;;18.17;;
32152;SDS011;18656;50.580;11.392;2023-03-01T04:46:35;37.40;;;18.60;;
32152;SDS011;18656;50.580;11.392;2023-03-01T04:49:03;36.55;;;18.65;;
32152;SDS011;18656;50.580;11.392;2023-03-01T04:51:31;32.10;;;18.08;;
32152;SDS011;18656;50.580;11.392;2023-03-01T04:53:58;36.95;;;18.45;;
32152;SDS011;18656;50.580;11.392;2023-03-01T04:56:26;33.63;;;18.27;;
32152;SDS011;18656;50.580;11.392;2023-03-01T04:58:54;32.53;;;18.02;;
32152;SDS011;18656;50.580;11.392;2023-03-01T05:01:21;31.48;;;16.70;;
32152;SDS011;18656;50.580;11.392;2023-03-01T05:03:52;34.00;;;17.15;;
32152;SDS011;18656;50.580;11.392;2023-03-01T05:06:20;33.47;;;16.67;;
32152;SDS011;18656;50.580;11.392;2023-03-01T05:08:48;39.67;;;17.75;;
32152;SDS011;18656;50.580;11.392;2023-03-01T05:11:15;35.40;;;15.80;;
32152;SDS011;18656;50.580;11.392;2023-03-01T05:13:42;34.72;;;18.42;;
32152;SDS011;18656;50.580;11.392;2023-03-01T05:16:10;42.13;;;18.27;;
32152;SDS011;18656;50.580;11.392;2023-03-01T05:18:38;34.55;;;17.85;;
32152;SDS011;18656;50.580;11.392;2023-03-01T05:21:10;32.17;;;18.02;;
32152;SDS011;18656;50.580;11.392;2023-03-01T05:23:37;35.45;;;19.48;;
32152;SDS011;18656;50.580;11.392;2023-03-01T05:26:05;36.92;;;19.75;;
32152;SDS011;18656;50.580;11.392;2023-03-01T05:28:47;39.80;;;18.90;;
32152;SDS011;18656;50.580;11.392;2023-03-01T05:31:14;38.33;;;19.10;;
32152;SDS011;18656;50.580;11.392;2023-03-01T05:33:42;37.42;;;19.27;;
32152;SDS011;18656;50.580;11.392;2023-03-01T05:36:09;41.55;;;18.98;;
32152;SDS011;18656;50.580;11.392;2023-03-01T05:38:37;33.97;;;18.40;;
32152;SDS011;18656;50.580;11.392;2023-03-01T05:41:04;34.22;;;17.35;;
32152;SDS011;18656;50.580;11.392;2023-03-01T05:43:31;35.67;;;18.25;;
32152;SDS011;18656;50.580;11.392;2023-03-01T05:46:00;39.17;;;18.60;;
32152;SDS011;18656;50.580;11.392;2023-03-01T05:48:27;39.45;;;18.80;;
32152;SDS011;18656;50.580;11.392;2023-03-01T05:50:54;36.10;;;18.92;;
32152;SDS011;18656;50.580;11.392;2023-03-01T05:53:22;35.42;;;18.30;;
32152;SDS011;18656;50.580;11.392;2023-03-01T05:55:49;40.50;;;18.38;;
32152;SDS011;18656;50.580;11.392;2023-03-01T05:58:18;35.45;;;17.58;;
32152;SDS011;18656;50.580;11.392;2023-03-01T06:00:47;40.70;;;20.33;;
32152;SDS011;18656;50.580;11.392;2023-03-01T06:03:15;39.65;;;19.65;;
32152;SDS011;18656;50.580;11.392;2023-03-01T06:05:43;43.05;;;19.38;;
32152;SDS011;18656;50.580;11.392;2023-03-01T06:08:11;36.47;;;17.52;;
32152;SDS011;18656;50.580;11.392;2023-03-01T06:10:39;44.90;;;18.83;;
32152;SDS011;18656;50.580;11.392;2023-03-01T06:13:07;43.67;;;19.90;;
32152;SDS011;18656;50.580;11.392;2023-03-01T06:15:34;41.58;;;20.55;;
32152;SDS011;18656;50.580;11.392;2023-03-01T06:18:01;38.47;;;19.40;;
32152;SDS011;18656;50.580;11.392;2023-03-01T06:20:28;45.15;;;20.48;;
32152;SDS011;18656;50.580;11.392;2023-03-01T06:22:56;41.28;;;19.27;;
32152;SDS011;18656;50.580;11.392;2023-03-01T06:25:24;43.83;;;20.00;;
32152;SDS011;18656;50.580;11.392;2023-03-01T06:27:52;37.78;;;19.15;;
32152;SDS011;18656;50.580;11.392;2023-03-01T06:30:20;36.13;;;19.67;;
32152;SDS011;18656;50.580;11.392;2023-03-01T06:32:49;38.63;;;19.15;;
32152;SDS011;18656;50.580;11.392;2023-03-01T06:35:16;38.70;;;20.30;;
32152;SDS011;18656;50.580;11.392;2023-03-01T06:37:45;38.67;;;20.33;;
32152;SDS011;18656;50.580;11.392;2023-03-01T06:40:12;38.78;;;20.73;;
32152;SDS011;18656;50.580;11.392;2023-03-01T06:42:42;34.40;;;19.25;;
32152;SDS011;18656;50.580;11.392;2023-03-01T06:45:10;41.55;;;21.67;;
32152;SDS011;18656;50.580;11.392;2023-03-01T06:47:38;43.90;;;23.58;;
32152;SDS011;18656;50.580;11.392;2023-03-01T06:50:05;50.28;;;24.63;;
32152;SDS011;18656;50.580;11.392;2023-03-01T06:52:32;55.50;;;29.23;;
32152;SDS011;18656;50.580;11.392;2023-03-01T06:55:00;42.15;;;22.30;;
32152;SDS011;18656;50.580;11.392;2023-03-01T06:57:28;46.67;;;23.35;;
32152;SDS011;18656;50.580;11.392;2023-03-01T06:59:55;48.95;;;24.70;;
32152;SDS011;18656;50.580;11.392;2023-03-01T07:02:22;49.58;;;26.55;;
32152;SDS011;18656;50.580;11.392;2023-03-01T07:04:50;51.38;;;27.95;;
32152;SDS011;18656;50.580;11.392;2023-03-01T07:07:17;48.78;;;25.60;;
32152;SDS011;18656;50.580;11.392;2023-03-01T07:09:45;42.03;;;22.58;;
32152;SDS011;18656;50.580;11.392;2023-03-01T07:12:12;43.47;;;22.17;;
32152;SDS011;18656;50.580;11.392;2023-03-01T07:14:40;39.80;;;20.25;;
32152;SDS011;18656;50.580;11.392;2023-03-01T07:17:07;43.08;;;19.88;;
32152;SDS011;18656;50.580;11.392;2023-03-01T07:19:35;41.65;;;20.45;;
32152;SDS011;18656;50.580;11.392;2023-03-01T07:22:03;41.38;;;20.73;;
32152;SDS011;18656;50.580;11.392;2023-03-01T07:24:30;45.95;;;21.90;;
32152;SDS011;18656;50.580;11.392;2023-03-01T07:26:57;55.28;;;24.27;;
32152;SDS011;18656;50.580;11.392;2023-03-01T07:29:25;48.10;;;23.00;;
32152;SDS011;18656;50.580;11.392;2023-03-01T07:31:52;50.85;;;22.08;;
32152;SDS011;18656;50.580;11.392;2023-03-01T07:34:19;43.67;;;22.92;;
32152;SDS011;18656;50.580;11.392;2023-03-01T07:36:46;50.35;;;22.73;;
32152;SDS011;18656;50.580;11.392;2023-03-01T07:39:13;48.63;;;21.90;;
32152;SDS011;18656;50.580;11.392;2023-03-01T07:41:43;45.38;;;23.67;;
32152;SDS011;18656;50.580;11.392;2023-03-01T07:44:10;48.65;;;23.83;;
32152;SDS011;18656;50.580;11.392;2023-03-01T07:46:37;48.53;;;23.73;;
32152;SDS011;18656;50.580;11.392;2023-03-01T07:49:04;46.47;;;23.90;;
32152;SDS011;18656;50.580;11.392;2023-03-01T07:51:32;65.85;;;26.40;;
32152;SDS011;18656;50.580;11.392;2023-03-01T07:53:59;63.75;;;29.35;;
32152;SDS011;18656;50.580;11.392;2023-03-01T07:56:26;66.00;;;32.97;;
32152;SDS011;18656;50.580;11.392;2023-03-01T07:58:54;75.68;;;35.63;;
32152;SDS011;18656;50.580;11.392;2023-03-01T08:01:22;83.18;;;35.35;;
32152;SDS011;18656;50.580;11.392;2023-03-01T08:03:50;79.95;;;36.92;;
32152;SDS011;18656;50.580;11.392;2023-03-01T08:06:17;84.72;;;37.15;;
32152;SDS011;18656;50.580;11.392;2023-03-01T08:08:45;59.88;;;29.98;;
32152;SDS011;18656;50.580;11.392;2023-03-01T08:11:13;56.25;;;28.70;;
32152;SDS011;18656;50.580;11.392;2023-03-01T08:13:41;45.90;;;22.48;;
32152;SDS011;18656;50.580;11.392;2023-03-01T08:16:13;47.85;;;17.85;;
32152;SDS011;18656;50.580;11.392;2023-03-01T08:18:40;45.08;;;18.33;;
32152;SDS011;18656;50.580;11.392;2023-03-01T08:21:15;35.08;;;14.98;;
32152;SDS011;18656;50.580;11.392;2023-03-01T08:23:43;33.83;;;14.35;;
32152;SDS011;18656;50.580;11.392;2023-03-01T08:26:18;27.85;;;15.52;;
32152;SDS011;18656;50.580;11.392;2023-03-01T08:28:46;28.90;;;15.07;;
32152;SDS011;18656;50.580;11.392;2023-03-01T08:33:41;48.70;;;15.88;;
32152;SDS011;18656;50.580;11.392;2023-03-01T08:36:08;33.58;;;15.65;;
32152;SDS011;18656;50.580;11.392;2023-03-01T08:38:36;33.08;;;16.00;;
32152;SDS011;18656;50.580;11.392;2023-03-01T08:41:05;49.03;;;16.63;;
32152;SDS011;18656;50.580;11.392;2023-03-01T08:43:32;37.47;;;17.60;;
32152;SDS011;18656;50.580;11.392;2023-03-01T08:45:59;26.05;;;17.10;;
32152;SDS011;18656;50.580;11.392;2023-03-01T08:48:27;34.80;;;18.08;;
32152;SDS011;18656;50.580;11.392;2023-03-01T08:50:55;30.38;;;18.27;;
32152;SDS011;18656;50.580;11.392;2023-03-01T08:53:22;24.05;;;18.45;;
32152;SDS011;18656;50.580;11.392;2023-03-01T08:55:49;26.42;;;18.40;;
32152;SDS011;18656;50.580;11.392;2023-03-01T08:58:17;33.30;;;18.85;;
32152;SDS011;18656;50.580;11.392;2023-03-01T09:00:46;27.75;;;19.40;;
32152;SDS011;18656;50.580;11.392;2023-03-01T09:03:14;26.88;;;19.00;;
32152;SDS011;18656;50.580;11.392;2023-03-01T09:05:41;31.48;;;18.52;;
32152;SDS011;18656;50.580;11.392;2023-03-01T09:08:08;29.67;;;18.52;;
32152;SDS011;18656;50.580;11.392;2023-03-01T09:10:37;28.27;;;18.90;;
32152;SDS011;18656;50.580;11.392;2023-03-01T09:13:04;27.98;;;18.67;;
32152;SDS011;18656;50.580;11.392;2023-03-01T09:15:31;30.23;;;18.20;;
32152;SDS011;18656;50.580;11.392;2023-03-01T09:18:00;26.42;;;18.30;;
32152;SDS011;18656;50.580;11.392;2023-03-01T09:20:27;29.67;;;18.75;;
32152;SDS011;18656;50.580;11.392;2023-03-01T09:22:54;29.02;;;19.83;;
32152;SDS011;18656;50.580;11.392;2023-03-01T09:25:21;28.13;;;17.48;;
32152;SDS011;18656;50.580;11.392;2023-03-01T09:27:52;25.45;;;18.70;;
32152;SDS011;18656;50.580;11.392;2023-03-01T09:30:20;28.73;;;18.35;;
32152;SDS011;18656;50.580;11.392;2023-03-01T09:32:47;26.92;;;18.27;;
32152;SDS011;18656;50.580;11.392;2023-03-01T09:35:15;33.25;;;18.38;;
32152;SDS011;18656;50.580;11.392;2023-03-01T09:37:42;23.17;;;17.23;;
32152;SDS011;18656;50.580;11.392;2023-03-01T09:40:15;35.20;;;18.67;;
32152;SDS011;18656;50.580;11.392;2023-03-01T09:42:58;29.02;;;18.38;;
32152;SDS011;18656;50.580;11.392;2023-03-01T09:45:32;24.70;;;17.73;;
32152;SDS011;18656;50.580;11.392;2023-03-01T09:48:00;26.20;;;18.20;;
32152;SDS011;18656;50.580;11.392;2023-03-01T09:50:32;25.20;;;18.60;;
32152;SDS011;18656;50.580;11.392;2023-03-01T09:53:05;26.85;;;18.90;;
32152;SDS011;18656;50.580;11.392;2023-03-01T09:55:37;30.10;;;16.85;;
32152;SDS011;18656;50.580;11.392;2023-03-01T09:58:19;25.95;;;17.25;;
32152;SDS011;18656;50.580;11.392;2023-03-01T10:00:50;24.88;;;17.60;;
32152;SDS011;18656;50.580;11.392;2023-03-01T10:03:21;24.83;;;17.80;;
32152;SDS011;18656;50.580;11.392;2023-03-01T10:05:54;25.23;;;17.23;;
32152;SDS011;18656;50.580;11.392;2023-03-01T10:08:26;28.67;;;17.60;;
32152;SDS011;18656;50.580;11.392;2023-03-01T10:10:55;22.95;;;17.08;;
32152;SDS011;18656;50.580;11.392;2023-03-01T10:13:24;25.92;;;18.95;;
32152;SDS011;18656;50.580;11.392;2023-03-01T10:16:03;24.88;;;18.70;;
32152;SDS011;18656;50.580;11.392;2023-03-01T10:18:32;26.33;;;17.40;;
32152;SDS011;18656;50.580;11.392;2023-03-01T10:21:05;25.25;;;17.08;;
32152;SDS011;18656;50.580;11.392;2023-03-01T10:23:35;24.02;;;16.98;;
32152;SDS011;18656;50.580;11.392;2023-03-01T10:29:02;37.95;;;18.58;;
32152;SDS011;18656;50.580;11.392;2023-03-01T10:31:34;27.13;;;16.83;;
32152;SDS011;18656;50.580;11.392;2023-03-01T10:34:11;19.73;;;16.30;;
32152;SDS011;18656;50.580;11.392;2023-03-01T10:36:38;21.83;;;15.88;;
32152;SDS011;18656;50.580;11.392;2023-03-01T10:39:20;22.08;;;16.25;;
32152;SDS011;18656;50.580;11.392;2023-03-01T10:42:04;20.45;;;15.43;;
32152;SDS011;18656;50.580;11.392;2023-03-01T10:47:00;21.52;;;16.33;;
32152;SDS011;18656;50.580;11.392;2023-03-01T10:49:27;21.35;;;16.38;;
32152;SDS011;18656;50.580;11.392;2023-03-01T10:51:55;23.15;;;15.70;;
32152;SDS011;18656;50.580;11.392;2023-03-01T10:54:25;22.88;;;15.45;;
32152;SDS011;18656;50.580;11.392;2023-03-01T10:56:53;23.83;;;15.55;;
32152;SDS011;18656;50.580;11.392;2023-03-01T10:59:26;20.02;;;14.98;;
32152;SDS011;18656;50.580;11.392;2023-03-01T11:02:02;24.75;;;15.43;;
32152;SDS011;18656;50.580;11.392;2023-03-01T11:04:42;31.55;;;15.20;;
32152;SDS011;18656;50.580;11.392;2023-03-01T11:07:22;19.83;;;13.95;;
32152;SDS011;18656;50.580;11.392;2023-03-01T11:09:50;22.13;;;14.05;;
32152;SDS011;18656;50.580;11.392;2023-03-01T11:12:17;23.90;;;14.00;;
32152;SDS011;18656;50.580;11.392;2023-03-01T11:14:52;19.08;;;13.77;;
32152;SDS011;18656;50.580;11.392;2023-03-01T11:17:25;17.55;;;13.10;;
32152;SDS011;18656;50.580;11.392;2023-03-01T11:20:06;19.73;;;13.45;;
32152;SDS011;18656;50.580;11.392;2023-03-01T11:25:20;19.40;;;13.48;;
32152;SDS011;18656;50.580;11.392;2023-03-01T11:27:50;17.05;;;13.38;;
32152;SDS011;18656;50.580;11.392;2023-03-01T11:32:47;19.38;;;12.77;;
32152;SDS011;18656;50.580;11.392;2023-03-01T11:35:20;19.25;;;13.70;;
32152;SDS011;18656;50.580;11.392;2023-03-01T11:40:23;17.98;;;13.40;;
32152;SDS011;18656;50.580;11.392;2023-03-01T11:42:55;17.10;;;13.32;;
32152;SDS011;18656;50.580;11.392;2023-03-01T11:45:24;16.77;;;13.70;;
32152;SDS011;18656;50.580;11.392;2023-03-01T11:47:56;22.27;;;13.68;;
32152;SDS011;18656;50.580;11.392;2023-03-01T11:50:27;20.75;;;13.82;;
32152;SDS011;18656;50.580;11.392;2023-03-01T11:55:52;21.92;;;14.13;;
32152;SDS011;18656;50.580;11.392;2023-03-01T11:58:40;19.13;;;14.05;;
32152;SDS011;18656;50.580;11.392;2023-03-01T12:01:23;16.50;;;13.68;;
32152;SDS011;18656;50.580;11.392;2023-03-01T12:04:15;21.27;;;14.20;;
32152;SDS011;18656;50.580;11.392;2023-03-01T12:06:47;19.02;;;13.00;;
32152;SDS011;18656;50.580;11.392;2023-03-01T12:09:32;21.35;;;14.55;;
32152;SDS011;18656;50.580;11.392;2023-03-01T12:14:52;18.98;;;15.00;;
32152;SDS011;18656;50.580;11.392;2023-03-01T12:20:11;18.98;;;14.05;;
32152;SDS011;18656;50.580;11.392;2023-03-01T12:25:41;49.38;;;26.15;;
32152;SDS011;18656;50.580;11.392;2023-03-01T12:28:33;53.13;;;31.48;;
32152;SDS011;18656;50.580;11.392;2023-03-01T12:33:53;32.67;;;20.85;;
32152;SDS011;18656;50.580;11.392;2023-03-01T12:36:33;46.00;;;26.85;;
32152;SDS011;18656;50.580;11.392;2023-03-01T12:41:52;20.70;;;14.95;;
32152;SDS011;18656;50.580;11.392;2023-03-01T12:49:57;29.25;;;19.65;;
32152;SDS011;18656;50.580;11.392;2023-03-01T12:52:30;71.05;;;52.33;;
32152;SDS011;18656;50.580;11.392;2023-03-01T12:57:29;37.53;;;25.90;;
32152;SDS011;18656;50.580;11.392;2023-03-01T13:02:39;28.73;;;20.67;;
32152;SDS011;18656;50.580;11.392;2023-03-01T13:08:02;24.48;;;16.17;;
32152;SDS011;18656;50.580;11.392;2023-03-01T13:10:40;22.90;;;15.27;;
32152;SDS011;18656;50.580;11.392;2023-03-01T13:13:11;26.90;;;15.35;;
32152;SDS011;18656;50.580;11.392;2023-03-01T13:15:39;47.50;;;28.70;;
32152;SDS011;18656;50.580;11.392;2023-03-01T13:20:46;24.23;;;15.18;;
32152;SDS011;18656;50.580;11.392;2023-03-01T13:31:55;24.95;;;15.63;;
32152;SDS011;18656;50.580;11.392;2023-03-01T13:33:58;23.23;;;14.85;;
32152;SDS011;18656;50.580;11.392;2023-03-01T13:36:45;21.02;;;15.38;;
32152;SDS011;18656;50.580;11.392;2023-03-01T13:39:26;21.33;;;14.52;;
32152;SDS011;18656;50.580;11.392;2023-03-01T13:41:54;22.45;;;14.45;;
32152;SDS011;18656;50.580;11.392;2023-03-01T13:46:53;23.83;;;14.35;;
32152;SDS011;18656;50.580;11.392;2023-03-01T13:49:23;22.45;;;13.85;;
32152;SDS011;18656;50.580;11.392;2023-03-01T13:51:54;26.55;;;15.35;;
32152;SDS011;18656;50.580;11.392;2023-03-01T13:54:26;22.10;;;14.55;;
32152;SDS011;18656;50.580;11.392;2023-03-01T13:56:55;22.27;;;14.18;;
32152;SDS011;18656;50.580;11.392;2023-03-01T13:59:25;42.55;;;15.00;;
32152;SDS011;18656;50.580;11.392;2023-03-01T14:01:54;26.15;;;14.38;;
32152;SDS011;18656;50.580;11.392;2023-03-01T14:04:22;25.23;;;14.30;;
32152;SDS011;18656;50.580;11.392;2023-03-01T14:06:50;25.38;;;14.82;;
32152;SDS011;18656;50.580;11.392;2023-03-01T14:09:18;20.90;;;14.05;;
32152;SDS011;18656;50.580;11.392;2023-03-01T14:11:51;21.80;;;14.85;;
32152;SDS011;18656;50.580;11.392;2023-03-01T14:19:34;19.10;;;13.68;;
32152;SDS011;18656;50.580;11.392;2023-03-01T14:22:10;23.20;;;14.63;;
32152;SDS011;18656;50.580;11.392;2023-03-01T14:24:51;19.95;;;13.73;;
32152;SDS011;18656;50.580;11.392;2023-03-01T14:27:18;26.33;;;14.15;;
32152;SDS011;18656;50.580;11.392;2023-03-01T14:29:59;21.30;;;14.00;;
32152;SDS011;18656;50.580;11.392;2023-03-01T14:32:28;27.17;;;14.93;;
32152;SDS011;18656;50.580;11.392;2023-03-01T14:34:56;21.20;;;14.52;;
32152;SDS011;18656;50.580;11.392;2023-03-01T14:39:51;22.08;;;14.70;;
32152;SDS011;18656;50.580;11.392;2023-03-01T14:42:19;21.23;;;14.25;;
32152;SDS011;18656;50.580;11.392;2023-03-01T14:44:48;21.48;;;14.45;;
32152;SDS011;18656;50.580;11.392;2023-03-01T14:47:25;45.80;;;29.23;;
32152;SDS011;18656;50.580;11.392;2023-03-01T14:49:57;23.27;;;15.48;;
32152;SDS011;18656;50.580;11.392;2023-03-01T14:52:27;22.10;;;14.63;;
32152;SDS011;18656;50.580;11.392;2023-03-01T14:54:56;28.75;;;15.65;;
32152;SDS011;18656;50.580;11.392;2023-03-01T14:57:24;35.30;;;17.70;;
32152;SDS011;18656;50.580;11.392;2023-03-01T14:59:52;33.65;;;16.00;;
32152;SDS011;18656;50.580;11.392;2023-03-01T15:02:21;22.67;;;14.63;;
32152;SDS011;18656;50.580;11.392;2023-03-01T15:04:50;20.13;;;14.82;;
32152;SDS011;18656;50.580;11.392;2023-03-01T15:07:19;22.23;;;15.10;;
32152;SDS011;18656;50.580;11.392;2023-03-01T15:09:47;25.58;;;15.30;;
32152;SDS011;18656;50.580;11.392;2023-03-01T15:14:54;24.40;;;15.57;;
32152;SDS011;18656;50.580;11.392;2023-03-01T15:17:30;24.08;;;15.55;;
32152;SDS011;18656;50.580;11.392;2023-03-01T15:19:58;22.63;;;15.10;;
32152;SDS011;18656;50.580;11.392;2023-03-01T15:22:26;23.85;;;15.80;;
32152;SDS011;18656;50.580;11.392;2023-03-01T15:24:53;27.67;;;16.00;;
32152;SDS011;18656;50.580;11.392;2023-03-01T15:27:22;21.05;;;15.15;;
32152;SDS011;18656;50.580;11.392;2023-03-01T15:29:57;26.40;;;16.33;;
32152;SDS011;18656;50.580;11.392;2023-03-01T15:32:33;28.25;;;16.38;;
32152;SDS011;18656;50.580;11.392;2023-03-01T15:35:31;27.15;;;16.23;;
32152;SDS011;18656;50.580;11.392;2023-03-01T15:37:48;26.67;;;15.82;;
32152;SDS011;18656;50.580;11.392;2023-03-01T15:42:46;28.63;;;15.93;;
32152;SDS011;18656;50.580;11.392;2023-03-01T15:47:46;24.65;;;15.32;;
32152;SDS011;18656;50.580;11.392;2023-03-01T15:50:19;26.13;;;17.13;;
32152;SDS011;18656;50.580;11.392;2023-03-01T15:52:46;27.98;;;16.88;;